createdAt,value
2019-02-16T00:01:48.757Z,0.00
2019-02-16T00:02:48.780Z,0.00
2019-02-16T00:03:48.799Z,0.00
2019-02-16T00:04:48.816Z,0.00
2019-02-16T00:05:48.825Z,0.00
2019-02-16T00:07:48.850Z,0.00
2019-02-16T00:08:48.871Z,0.00
2019-02-16T00:09:48.891Z,0.00
2019-02-16T00:10:48.903Z,0.00
2019-02-16T00:11:48.922Z,0.00
2019-02-16T00:13:48.966Z,0.00
2019-02-16T00:14:48.961Z,0.00
2019-02-16T00:15:48.979Z,0.00
2019-02-16T00:16:49.140Z,0.00
2019-02-16T00:17:49.011Z,0.00
2019-02-16T00:19:49.080Z,0.00
2019-02-16T00:20:49.101Z,0.00
2019-02-16T00:21:49.124Z,0.00
2019-02-16T00:22:49.138Z,0.00
2019-02-16T00:23:49.144Z,0.00
2019-02-16T00:26:01.369Z,0.00
2019-02-16T00:28:01.353Z,0.00
2019-02-16T00:30:01.422Z,0.00
2019-02-16T00:31:01.411Z,0.00
2019-02-16T00:32:01.464Z,0.00
2019-02-16T00:33:01.428Z,0.00
2019-02-16T00:35:01.552Z,0.00
2019-02-16T00:36:01.528Z,0.00
2019-02-16T00:37:01.544Z,0.00
2019-02-16T00:38:01.546Z,0.00
2019-02-16T00:39:01.568Z,0.00
2019-02-16T00:40:01.589Z,0.00
2019-02-16T00:41:22.603Z,0.00
2019-02-16T00:42:01.610Z,0.00
2019-02-16T00:43:01.633Z,0.00
2019-02-16T00:44:01.639Z,0.00
2019-02-16T00:45:01.656Z,0.00
2019-02-16T00:46:01.669Z,0.00
2019-02-16T00:47:22.697Z,0.00
2019-02-16T00:48:01.702Z,0.00
2019-02-16T00:49:01.768Z,0.00
2019-02-16T00:51:48.146Z,0.00
2019-02-16T00:52:47.953Z,0.00
2019-02-16T00:54:08.967Z,0.00
2019-02-16T00:54:48.083Z,0.00
2019-02-16T00:55:47.944Z,0.00
2019-02-16T00:56:48.042Z,0.00
2019-02-16T00:58:48.221Z,0.00
2019-02-16T00:59:48.126Z,0.00
2019-02-16T01:00:48.108Z,0.00
2019-02-16T01:01:48.024Z,0.00
2019-02-16T01:02:48.052Z,0.00
2019-02-16T01:03:48.092Z,0.00
2019-02-16T01:04:48.112Z,0.00
2019-02-16T01:05:48.094Z,0.00
2019-02-16T01:07:09.122Z,0.00
2019-02-16T01:07:48.114Z,0.00
2019-02-16T01:08:48.176Z,0.00
2019-02-16T01:09:48.163Z,0.00
2019-02-16T01:10:48.171Z,0.00
2019-02-16T01:11:48.185Z,0.00
2019-02-16T01:12:48.389Z,0.00
2019-02-16T01:13:48.210Z,0.00
2019-02-16T01:14:48.226Z,0.00
2019-02-16T01:15:48.236Z,0.00
2019-02-16T01:16:48.255Z,0.00
2019-02-16T01:18:48.335Z,0.00
2019-02-16T01:19:48.316Z,0.00
2019-02-16T01:20:48.320Z,0.00
2019-02-16T01:21:48.341Z,0.00
2019-02-16T01:22:48.340Z,0.00
2019-02-16T01:23:48.367Z,0.00
2019-02-16T01:24:48.386Z,0.00
2019-02-16T01:25:48.397Z,0.00
2019-02-16T01:26:48.406Z,0.00
2019-02-16T01:27:48.419Z,0.00
2019-02-16T01:30:48.472Z,0.00
2019-02-16T01:31:48.483Z,0.00
2019-02-16T01:32:48.497Z,0.00
2019-02-16T01:33:48.526Z,0.00
2019-02-16T01:34:48.526Z,0.00
2019-02-16T01:35:48.537Z,0.00
2019-02-16T01:36:48.557Z,0.00
2019-02-16T01:37:48.592Z,0.00
2019-02-16T01:38:48.590Z,0.00
2019-02-16T01:39:48.597Z,0.00
2019-02-16T01:40:48.623Z,0.00
2019-02-16T01:41:48.626Z,0.00
2019-02-16T01:42:48.653Z,0.00
2019-02-16T01:43:48.655Z,0.00
2019-02-16T01:44:48.692Z,0.00
2019-02-16T01:46:48.707Z,0.00
2019-02-16T01:47:48.738Z,0.00
2019-02-16T01:48:48.739Z,0.00
2019-02-16T01:49:48.747Z,0.00
2019-02-16T01:50:48.758Z,0.00
2019-02-16T01:51:48.777Z,0.00
2019-02-16T01:52:48.802Z,0.00
2019-02-16T01:53:48.822Z,0.00
2019-02-16T01:54:48.826Z,0.00
2019-02-16T01:55:48.838Z,0.00
2019-02-16T01:56:48.853Z,0.00
2019-02-16T01:57:48.869Z,0.00
2019-02-16T01:59:48.890Z,0.00
2019-02-16T02:00:48.907Z,0.00
2019-02-16T02:01:48.927Z,0.00
2019-02-16T02:02:48.969Z,0.00
2019-02-16T02:03:48.978Z,0.00
2019-02-16T02:05:48.997Z,0.00
2019-02-16T02:06:49.002Z,0.00
2019-02-16T02:07:49.034Z,0.00
2019-02-16T02:08:49.034Z,0.00
2019-02-16T02:09:49.083Z,0.00
2019-02-16T02:10:49.077Z,0.00
2019-02-16T02:11:49.079Z,0.00
2019-02-16T02:12:49.090Z,0.00
2019-02-16T02:13:49.110Z,0.00
2019-02-16T02:14:49.121Z,0.00
2019-02-16T02:15:49.137Z,0.00
2019-02-16T02:16:49.148Z,0.00
2019-02-16T02:17:49.161Z,0.00
2019-02-16T02:18:49.174Z,0.00
2019-02-16T02:19:49.200Z,0.00
2019-02-16T02:21:49.252Z,0.00
2019-02-16T02:22:49.235Z,0.00
2019-02-16T02:23:49.280Z,0.00
2019-02-16T02:24:49.272Z,0.00
2019-02-16T02:25:49.278Z,0.00
2019-02-16T02:26:49.297Z,0.00
2019-02-16T02:27:49.307Z,0.00
2019-02-16T02:28:49.324Z,0.00
2019-02-16T02:29:49.339Z,0.00
2019-02-16T02:30:49.356Z,0.00
2019-02-16T02:31:49.376Z,0.00
2019-02-16T02:33:49.401Z,0.00
2019-02-16T02:34:49.424Z,0.00
2019-02-16T02:35:49.510Z,0.00
2019-02-16T02:36:49.503Z,0.00
2019-02-16T02:37:49.477Z,0.00
2019-02-16T02:38:49.470Z,0.00
2019-02-16T02:39:49.490Z,0.00
2019-02-16T02:40:49.505Z,0.00
2019-02-16T02:41:49.519Z,0.00
2019-02-16T02:42:49.534Z,0.00
2019-02-16T02:43:49.553Z,0.00
2019-02-16T02:44:49.575Z,0.00
2019-02-16T02:45:49.666Z,0.00
2019-02-16T02:46:49.590Z,0.00
2019-02-16T02:47:49.603Z,0.00
2019-02-16T02:48:49.621Z,0.00
2019-02-16T02:49:49.636Z,0.00
2019-02-16T02:50:49.663Z,0.00
2019-02-16T02:51:52.285Z,0.00
2019-02-16T02:52:49.681Z,0.00
2019-02-16T02:53:49.703Z,0.00
2019-02-16T02:54:49.707Z,0.00
2019-02-16T02:55:49.833Z,0.00
2019-02-16T02:56:49.742Z,0.00
2019-02-16T02:57:49.775Z,0.00
2019-02-16T02:58:49.771Z,0.00
2019-02-16T02:59:49.780Z,0.00
2019-02-16T03:00:49.810Z,0.00
2019-02-16T03:01:49.822Z,0.00
2019-02-16T03:03:49.844Z,0.00
2019-02-16T03:04:49.877Z,0.00
2019-02-16T03:05:49.892Z,0.00
2019-02-16T03:06:49.896Z,0.00
2019-02-16T03:07:49.893Z,0.00
2019-02-16T03:08:49.920Z,0.00
2019-02-16T03:09:49.935Z,0.00
2019-02-16T03:11:49.955Z,0.00
2019-02-16T03:12:49.977Z,0.00
2019-02-16T03:13:49.983Z,0.00
2019-02-16T03:14:49.999Z,0.00
2019-02-16T03:15:50.069Z,0.00
2019-02-16T03:16:50.032Z,0.00
2019-02-16T03:17:50.044Z,0.00
2019-02-16T03:18:50.051Z,0.00
2019-02-16T03:19:50.089Z,0.00
2019-02-16T03:20:50.091Z,0.00
2019-02-16T03:21:50.098Z,0.00
2019-02-16T03:22:50.131Z,0.00
2019-02-16T03:23:50.130Z,0.00
2019-02-16T03:24:50.143Z,0.00
2019-02-16T03:25:50.159Z,0.00
2019-02-16T03:26:50.172Z,0.00
2019-02-16T03:27:50.194Z,0.00
2019-02-16T03:28:50.200Z,0.00
2019-02-16T03:29:50.219Z,0.00
2019-02-16T03:30:50.261Z,0.00
2019-02-16T03:31:50.253Z,0.00
2019-02-16T03:32:50.265Z,0.00
2019-02-16T03:33:50.276Z,0.00
2019-02-16T03:34:50.293Z,0.00
2019-02-16T03:35:50.317Z,0.00
2019-02-16T03:37:50.327Z,0.00
2019-02-16T03:38:50.350Z,0.00
2019-02-16T03:39:50.373Z,0.00
2019-02-16T03:40:50.387Z,0.00
2019-02-16T03:41:50.397Z,0.00
2019-02-16T03:42:50.398Z,0.00
2019-02-16T03:43:50.417Z,0.00
2019-02-16T03:44:50.438Z,0.00
2019-02-16T03:45:50.441Z,0.00
2019-02-16T03:46:50.457Z,0.00
2019-02-16T03:47:50.472Z,0.00
2019-02-16T03:48:50.497Z,0.00
2019-02-16T03:49:50.499Z,0.00
2019-02-16T03:50:50.567Z,0.00
2019-02-16T03:51:50.532Z,0.00
2019-02-16T03:52:50.547Z,0.00
2019-02-16T03:53:50.575Z,0.00
2019-02-16T03:54:50.582Z,0.00
2019-02-16T03:55:50.593Z,0.00
2019-02-16T03:56:50.608Z,0.00
2019-02-16T03:57:50.616Z,0.00
2019-02-16T03:58:50.661Z,0.00
2019-02-16T03:59:50.649Z,0.00
2019-02-16T04:00:50.735Z,0.00
2019-02-16T04:02:50.689Z,0.00
2019-02-16T04:03:50.702Z,0.00
2019-02-16T04:04:50.714Z,0.00
2019-02-16T04:05:50.757Z,0.00
2019-02-16T04:06:50.748Z,0.00
2019-02-16T04:08:50.771Z,0.00
2019-02-16T04:09:50.800Z,0.00
2019-02-16T04:10:50.885Z,0.00
2019-02-16T04:11:50.816Z,0.00
2019-02-16T04:12:50.842Z,0.00
2019-02-16T04:13:50.841Z,0.00
2019-02-16T04:14:50.854Z,0.00
2019-02-16T04:15:50.891Z,0.00
2019-02-16T04:16:50.883Z,0.00
2019-02-16T04:17:50.916Z,0.00
2019-02-16T04:18:50.909Z,0.00
2019-02-16T04:19:50.927Z,0.00
2019-02-16T04:20:50.944Z,0.00
2019-02-16T04:21:50.972Z,0.00
2019-02-16T04:22:50.979Z,0.00
2019-02-16T04:23:50.990Z,0.00
2019-02-16T04:24:51.005Z,0.00
2019-02-16T04:25:51.025Z,0.00
2019-02-16T04:26:51.024Z,0.00
2019-02-16T04:27:51.042Z,0.00
2019-02-16T04:28:51.070Z,0.00
2019-02-16T04:29:51.071Z,0.00
2019-02-16T04:30:51.089Z,0.00
2019-02-16T04:32:51.117Z,0.00
2019-02-16T04:33:51.131Z,0.00
2019-02-16T04:34:51.146Z,0.00
2019-02-16T04:35:51.158Z,0.00
2019-02-16T04:36:51.167Z,0.00
2019-02-16T04:37:51.192Z,0.00
2019-02-16T04:38:51.220Z,0.00
2019-02-16T04:39:51.213Z,0.00
2019-02-16T04:40:51.241Z,0.00
2019-02-16T04:41:51.243Z,0.00
2019-02-16T04:42:51.251Z,0.00
2019-02-16T04:43:51.267Z,0.00
2019-02-16T04:44:51.287Z,0.00
2019-02-16T04:45:51.295Z,0.00
2019-02-16T04:46:51.305Z,0.00
2019-02-16T04:47:51.323Z,0.00
2019-02-16T04:48:51.359Z,0.00
2019-02-16T04:49:51.352Z,0.00
2019-02-16T04:50:51.385Z,0.00
2019-02-16T04:51:51.380Z,0.00
2019-02-16T04:52:51.392Z,0.00
2019-02-16T04:53:51.407Z,0.00
2019-02-16T04:55:51.457Z,0.00
2019-02-16T04:56:51.453Z,0.00
2019-02-16T04:57:51.472Z,0.00
2019-02-16T04:58:51.490Z,0.00
2019-02-16T04:59:51.498Z,0.00
2019-02-16T05:00:51.502Z,0.00
2019-02-16T05:01:51.522Z,0.00
2019-02-16T05:02:51.533Z,0.00
2019-02-16T05:04:51.563Z,0.00
2019-02-16T05:05:51.574Z,0.00
2019-02-16T05:06:51.584Z,0.00
2019-02-16T05:07:51.610Z,0.00
2019-02-16T05:08:51.618Z,0.00
2019-02-16T05:09:51.791Z,0.00
2019-02-16T05:10:51.638Z,0.00
2019-02-16T05:11:51.671Z,0.00
2019-02-16T05:12:51.672Z,0.00
2019-02-16T05:13:51.699Z,0.00
2019-02-16T05:14:51.708Z,0.00
2019-02-16T05:15:51.723Z,0.00
2019-02-16T05:16:51.729Z,0.00
2019-02-16T05:17:51.750Z,0.00
2019-02-16T05:18:51.756Z,0.00
2019-02-16T05:19:51.766Z,0.00
2019-02-16T05:20:51.795Z,0.00
2019-02-16T05:21:51.795Z,0.00
2019-02-16T05:22:51.881Z,0.00
2019-02-16T05:23:51.825Z,0.00
2019-02-16T05:24:51.842Z,0.00
2019-02-16T05:25:51.855Z,0.00
2019-02-16T05:26:51.881Z,0.00
2019-02-16T05:28:51.894Z,0.00
2019-02-16T05:29:51.908Z,0.00
2019-02-16T05:30:51.929Z,0.00
2019-02-16T05:31:51.935Z,0.00
2019-02-16T05:32:51.964Z,0.00
2019-02-16T05:33:51.961Z,0.00
2019-02-16T05:34:51.974Z,0.00
2019-02-16T05:35:51.994Z,0.00
2019-02-16T05:37:52.038Z,0.00
2019-02-16T05:38:52.035Z,0.00
2019-02-16T05:39:52.055Z,0.00
2019-02-16T05:40:52.067Z,0.00
2019-02-16T05:42:52.110Z,0.00
2019-02-16T05:44:13.128Z,0.00
2019-02-16T05:44:52.122Z,0.00
2019-02-16T05:45:52.134Z,0.00
2019-02-16T05:46:52.146Z,0.00
2019-02-16T05:47:52.189Z,0.00
2019-02-16T05:48:52.172Z,0.00
2019-02-16T05:49:52.183Z,0.00
2019-02-16T05:50:52.207Z,0.00
2019-02-16T05:51:52.215Z,0.00
2019-02-16T05:52:54.675Z,0.00
2019-02-16T05:53:52.239Z,0.00
2019-02-16T05:54:52.271Z,0.00
2019-02-16T05:56:52.292Z,0.00
2019-02-16T05:57:52.423Z,0.00
2019-02-16T05:58:52.309Z,0.00
2019-02-16T05:59:52.325Z,0.00
2019-02-16T06:00:52.345Z,0.00
2019-02-16T06:02:13.367Z,0.00
2019-02-16T06:02:52.366Z,0.00
2019-02-16T06:03:52.377Z,0.00
2019-02-16T06:04:52.394Z,0.00
2019-02-16T06:05:52.400Z,0.00
2019-02-16T06:06:52.427Z,0.00
2019-02-16T06:07:52.429Z,0.00
2019-02-16T06:09:13.467Z,0.00
2019-02-16T06:09:52.458Z,0.00
2019-02-16T06:10:52.478Z,0.00
2019-02-16T06:11:52.489Z,0.00
2019-02-16T06:13:13.529Z,0.00
2019-02-16T06:13:52.519Z,0.00
2019-02-16T06:14:52.522Z,0.00
2019-02-16T06:15:52.536Z,0.00
2019-02-16T06:16:52.551Z,4.00
2019-02-16T06:17:52.574Z,4.00
2019-02-16T06:18:52.581Z,0.00
2019-02-16T06:19:52.600Z,4.00
2019-02-16T06:20:52.609Z,4.00
2019-02-16T06:21:52.622Z,0.00
2019-02-16T06:22:52.672Z,4.00
2019-02-16T06:23:52.653Z,4.00
2019-02-16T06:24:52.669Z,4.00
2019-02-16T06:25:52.674Z,8.00
2019-02-16T06:26:52.695Z,4.00
2019-02-16T06:27:52.703Z,8.00
2019-02-16T06:28:52.716Z,8.00
2019-02-16T06:29:52.727Z,8.00
2019-02-16T06:30:52.738Z,12.00
2019-02-16T06:31:52.760Z,12.00
2019-02-16T06:32:52.832Z,16.00
2019-02-16T06:34:52.810Z,16.00
2019-02-16T06:35:52.810Z,20.00
2019-02-16T06:36:52.823Z,20.00
2019-02-16T06:37:52.833Z,24.00
2019-02-16T06:38:52.853Z,24.00
2019-02-16T06:39:52.873Z,28.00
2019-02-16T06:40:52.890Z,28.00
2019-02-16T06:41:52.896Z,32.00
2019-02-16T06:42:53.016Z,36.00
2019-02-16T06:44:52.948Z,36.00
2019-02-16T06:45:52.944Z,44.00
2019-02-16T06:46:52.951Z,44.00
2019-02-16T06:47:52.968Z,48.00
2019-02-16T06:48:52.984Z,48.00
2019-02-16T06:49:52.998Z,52.00
2019-02-16T06:50:53.011Z,52.00
2019-02-16T06:51:53.034Z,56.00
2019-02-16T06:52:53.037Z,60.00
2019-02-16T06:53:53.064Z,64.00
2019-02-16T06:54:53.066Z,68.00
2019-02-16T06:55:53.077Z,72.00
2019-02-16T06:56:53.095Z,68.00
2019-02-16T06:57:53.103Z,72.00
2019-02-16T06:58:53.131Z,76.00
2019-02-16T06:59:53.130Z,80.00
2019-02-16T07:00:53.149Z,80.00
2019-02-16T07:01:53.153Z,84.00
2019-02-16T07:02:53.191Z,88.00
2019-02-16T07:03:53.190Z,92.00
2019-02-16T07:04:53.241Z,92.00
2019-02-16T07:05:53.214Z,96.00
2019-02-16T07:06:53.224Z,100.00
2019-02-16T07:07:53.241Z,100.00
2019-02-16T07:08:53.256Z,104.00
2019-02-16T07:09:53.267Z,112.00
2019-02-16T07:10:53.281Z,112.00
2019-02-16T07:11:53.327Z,116.00
2019-02-16T07:12:53.327Z,116.00
2019-02-16T07:13:53.327Z,120.00
2019-02-16T07:14:53.424Z,120.00
2019-02-16T07:15:53.353Z,128.00
2019-02-16T07:17:53.373Z,132.00
2019-02-16T07:18:53.385Z,136.00
2019-02-16T07:19:53.408Z,140.00
2019-02-16T07:20:53.410Z,144.00
2019-02-16T07:21:53.455Z,144.00
2019-02-16T07:22:53.442Z,148.00
2019-02-16T07:23:53.450Z,148.00
2019-02-16T07:24:53.473Z,152.00
2019-02-16T07:25:53.492Z,160.00
2019-02-16T07:26:53.500Z,160.00
2019-02-16T07:27:53.520Z,164.00
2019-02-16T07:28:53.518Z,168.00
2019-02-16T07:29:53.537Z,172.00
2019-02-16T07:30:53.547Z,176.00
2019-02-16T07:31:53.566Z,180.00
2019-02-16T07:32:53.578Z,180.00
2019-02-16T07:33:53.589Z,184.00
2019-02-16T07:34:53.600Z,188.00
2019-02-16T07:35:53.636Z,188.00
2019-02-16T07:36:53.637Z,196.00
2019-02-16T07:37:53.703Z,200.00
2019-02-16T07:38:53.652Z,208.00
2019-02-16T07:39:53.670Z,216.00
2019-02-16T07:40:53.700Z,220.00
2019-02-16T07:41:53.694Z,224.00
2019-02-16T07:42:53.710Z,224.00
2019-02-16T07:43:53.737Z,228.00
2019-02-16T07:44:53.760Z,240.00
2019-02-16T07:45:53.746Z,248.00
2019-02-16T07:46:53.771Z,260.00
2019-02-16T07:47:53.844Z,272.00
2019-02-16T07:48:53.788Z,288.00
2019-02-16T07:49:53.802Z,304.00
2019-02-16T07:50:53.821Z,316.00
2019-02-16T07:51:53.834Z,304.00
2019-02-16T07:52:53.850Z,268.00
2019-02-16T07:53:53.855Z,256.00
2019-02-16T07:54:53.881Z,256.00
2019-02-16T07:55:53.908Z,260.00
2019-02-16T07:56:53.914Z,264.00
2019-02-16T07:57:53.915Z,280.00
2019-02-16T07:58:53.933Z,308.00
2019-02-16T07:59:53.943Z,356.00
2019-02-16T08:00:53.959Z,428.00
2019-02-16T08:01:53.973Z,576.00
2019-02-16T08:02:53.979Z,824.00
2019-02-16T08:03:54.002Z,1160.00
2019-02-16T08:04:54.034Z,1516.00
2019-02-16T08:05:54.022Z,1916.00
2019-02-16T08:06:54.042Z,2584.00
2019-02-16T08:07:54.085Z,3120.00
2019-02-16T08:08:54.065Z,3544.00
2019-02-16T08:09:54.085Z,3752.00
2019-02-16T08:10:54.091Z,3724.00
2019-02-16T08:11:54.108Z,3764.00
2019-02-16T08:12:54.193Z,3724.00
2019-02-16T08:13:54.137Z,3504.00
2019-02-16T08:14:54.147Z,3228.00
2019-02-16T08:15:54.179Z,3052.00
2019-02-16T08:16:54.181Z,3000.00
2019-02-16T08:17:54.205Z,2972.00
2019-02-16T08:18:54.222Z,2980.00
2019-02-16T08:19:54.228Z,2928.00
2019-02-16T08:20:54.248Z,2908.00
2019-02-16T08:21:54.268Z,2984.00
2019-02-16T08:22:54.333Z,2860.00
2019-02-16T08:23:54.300Z,2780.00
2019-02-16T08:24:54.311Z,2832.00
2019-02-16T08:25:54.321Z,3088.00
2019-02-16T08:26:54.345Z,3472.00
2019-02-16T08:27:54.359Z,3588.00
2019-02-16T08:28:54.381Z,3380.00
2019-02-16T08:29:54.387Z,3296.00
2019-02-16T08:30:54.400Z,3504.00
2019-02-16T08:31:54.416Z,4036.00
2019-02-16T08:32:54.464Z,4056.00
2019-02-16T08:33:54.993Z,3608.00
2019-02-16T08:34:54.488Z,3524.00
2019-02-16T08:35:54.490Z,3364.00
2019-02-16T08:36:54.516Z,3180.00
2019-02-16T08:37:54.585Z,3012.00
2019-02-16T08:38:54.579Z,2768.00
2019-02-16T08:39:54.569Z,2684.00
2019-02-16T08:40:54.592Z,2836.00
2019-02-16T08:41:54.613Z,2956.00
2019-02-16T08:42:54.606Z,3348.00
2019-02-16T08:43:54.631Z,4064.00
2019-02-16T08:44:54.712Z,3808.00
2019-02-16T08:45:54.666Z,3028.00
2019-02-16T08:46:54.690Z,2980.00
2019-02-16T08:47:54.705Z,2724.00
2019-02-16T08:48:54.721Z,2804.00
2019-02-16T08:49:54.735Z,3176.00
2019-02-16T08:50:54.755Z,3640.00
2019-02-16T08:51:54.769Z,3964.00
2019-02-16T08:52:54.786Z,3784.00
2019-02-16T08:53:54.815Z,3656.00
2019-02-16T08:54:54.949Z,3488.00
2019-02-16T08:55:54.844Z,3940.00
2019-02-16T08:56:54.866Z,4452.00
2019-02-16T08:57:54.880Z,4456.00
2019-02-16T08:58:54.904Z,4396.00
2019-02-16T08:59:54.917Z,4740.00
2019-02-16T09:00:54.942Z,5088.00
2019-02-16T09:01:54.961Z,5296.00
2019-02-16T09:02:55.027Z,4940.00
2019-02-16T09:03:54.990Z,4740.00
2019-02-16T09:04:55.012Z,4828.00
2019-02-16T09:05:55.037Z,4460.00
2019-02-16T09:06:55.047Z,3740.00
2019-02-16T09:07:55.063Z,3548.00
2019-02-16T09:08:55.082Z,4360.00
2019-02-16T09:09:55.106Z,5096.00
2019-02-16T09:10:55.117Z,5112.00
2019-02-16T09:11:55.133Z,4968.00
2019-02-16T09:12:55.167Z,5680.00
2019-02-16T09:13:55.178Z,6048.00
2019-02-16T09:14:55.223Z,5988.00
2019-02-16T09:15:55.223Z,6088.00
2019-02-16T09:16:55.246Z,5948.00
2019-02-16T09:17:55.250Z,5888.00
2019-02-16T09:18:55.306Z,5940.00
2019-02-16T09:19:55.302Z,5936.00
2019-02-16T09:20:55.333Z,5868.00
2019-02-16T09:21:55.335Z,5756.00
2019-02-16T09:22:55.354Z,5580.00
2019-02-16T09:23:59.084Z,5400.00
2019-02-16T09:24:55.406Z,5284.00
2019-02-16T09:25:55.416Z,5264.00
2019-02-16T09:27:55.467Z,4456.00
2019-02-16T09:28:55.491Z,3500.00
2019-02-16T09:29:55.502Z,3320.00
2019-02-16T09:30:55.521Z,3996.00
2019-02-16T09:31:55.643Z,4740.00
2019-02-16T09:32:55.575Z,4996.00
2019-02-16T09:33:55.589Z,4600.00
2019-02-16T09:34:55.605Z,3524.00
2019-02-16T09:35:55.626Z,2636.00
2019-02-16T09:36:55.754Z,2324.00
2019-02-16T09:37:55.672Z,2268.00
2019-02-16T09:38:55.693Z,2320.00
2019-02-16T09:39:55.725Z,2492.00
2019-02-16T09:40:55.745Z,3096.00
2019-02-16T09:41:55.750Z,3972.00
2019-02-16T09:42:55.789Z,4272.00
2019-02-16T09:43:55.794Z,4004.00
2019-02-16T09:44:55.820Z,3452.00
2019-02-16T09:45:55.836Z,2944.00
2019-02-16T09:46:55.899Z,2832.00
2019-02-16T09:47:55.882Z,2780.00
2019-02-16T09:48:55.902Z,2392.00
2019-02-16T09:49:55.926Z,1904.00
2019-02-16T09:50:55.945Z,1776.00
2019-02-16T09:51:55.957Z,1744.00
2019-02-16T09:52:55.979Z,1800.00
2019-02-16T09:53:56.129Z,1948.00
2019-02-16T09:54:56.022Z,2112.00
2019-02-16T09:55:56.037Z,2352.00
2019-02-16T09:56:56.065Z,2896.00
2019-02-16T09:57:56.103Z,3732.00
2019-02-16T09:58:56.116Z,4452.00
2019-02-16T09:59:56.118Z,4740.00
2019-02-16T10:00:56.148Z,4996.00
2019-02-16T10:01:56.157Z,5284.00
2019-02-16T10:02:56.179Z,5404.00
2019-02-16T10:03:56.220Z,5344.00
2019-02-16T10:04:56.216Z,5248.00
2019-02-16T10:05:56.239Z,5096.00
2019-02-16T10:06:56.265Z,5108.00
2019-02-16T10:07:56.277Z,5384.00
2019-02-16T10:08:56.302Z,5856.00
2019-02-16T10:09:56.328Z,6128.00
2019-02-16T10:10:56.360Z,6140.00
2019-02-16T10:11:56.367Z,6236.00
2019-02-16T10:12:56.382Z,6376.00
2019-02-16T10:13:56.436Z,6324.00
2019-02-16T10:14:56.423Z,5840.00
2019-02-16T10:15:56.471Z,5412.00
2019-02-16T10:16:56.463Z,5112.00
2019-02-16T10:17:56.481Z,4688.00
2019-02-16T10:18:56.506Z,4196.00
2019-02-16T10:19:56.539Z,3824.00
2019-02-16T10:20:56.557Z,3780.00
2019-02-16T10:21:56.592Z,3872.00
2019-02-16T10:22:56.599Z,3764.00
2019-02-16T10:23:56.649Z,3504.00
2019-02-16T10:24:56.640Z,3400.00
2019-02-16T10:25:56.693Z,3392.00
2019-02-16T10:26:56.701Z,3328.00
2019-02-16T10:27:56.713Z,3344.00
2019-02-16T10:28:56.737Z,3364.00
2019-02-16T10:29:56.744Z,3380.00
2019-02-16T10:30:56.769Z,3416.00
2019-02-16T10:31:56.788Z,3620.00
2019-02-16T10:32:56.809Z,3928.00
2019-02-16T10:33:56.830Z,4196.00
2019-02-16T10:34:56.845Z,4400.00
2019-02-16T10:35:56.934Z,4480.00
2019-02-16T10:36:56.899Z,4500.00
2019-02-16T10:37:56.946Z,4628.00
2019-02-16T10:38:56.938Z,4832.00
2019-02-16T10:39:56.954Z,4932.00
2019-02-16T10:40:56.972Z,4880.00
2019-02-16T10:41:56.989Z,4832.00
2019-02-16T10:42:57.025Z,5052.00
2019-02-16T10:43:57.032Z,5368.00
2019-02-16T10:44:57.074Z,5696.00
2019-02-16T10:45:57.071Z,5520.00
2019-02-16T10:46:57.099Z,5416.00
2019-02-16T10:47:57.117Z,5148.00
2019-02-16T10:48:57.134Z,4856.00
2019-02-16T10:49:57.159Z,4724.00
2019-02-16T10:50:57.170Z,4692.00
2019-02-16T10:51:57.209Z,4824.00
2019-02-16T10:52:57.247Z,4808.00
2019-02-16T10:53:57.250Z,4704.00
2019-02-16T10:54:57.267Z,4608.00
2019-02-16T10:55:57.276Z,4496.00
2019-02-16T10:56:57.303Z,4588.00
2019-02-16T10:57:57.314Z,4672.00
2019-02-16T10:58:57.338Z,4724.00
2019-02-16T10:59:57.360Z,4768.00
2019-02-16T11:00:57.380Z,4776.00
2019-02-16T11:01:57.404Z,4736.00
2019-02-16T11:02:57.561Z,4812.00
2019-02-16T11:03:57.445Z,4908.00
2019-02-16T11:04:57.463Z,4992.00
2019-02-16T11:05:57.481Z,5044.00
2019-02-16T11:06:57.506Z,5052.00
2019-02-16T11:07:57.529Z,5012.00
2019-02-16T11:08:57.556Z,4992.00
2019-02-16T11:09:57.578Z,5052.00
2019-02-16T11:11:57.616Z,5236.00
2019-02-16T11:12:57.665Z,5248.00
2019-02-16T11:13:57.655Z,5232.00
2019-02-16T11:14:57.670Z,5304.00
2019-02-16T11:16:57.769Z,5616.00
2019-02-16T11:17:57.753Z,5756.00
2019-02-16T11:18:57.758Z,5852.00
2019-02-16T11:19:57.782Z,5912.00
2019-02-16T11:20:57.815Z,5952.00
2019-02-16T11:21:59.846Z,5984.00
2019-02-16T11:22:57.849Z,6012.00
2019-02-16T11:23:57.887Z,6036.00
2019-02-16T11:24:57.944Z,6108.00
2019-02-16T11:25:57.910Z,6112.00
2019-02-16T11:26:57.934Z,6164.00
2019-02-16T11:27:57.954Z,6324.00
2019-02-16T11:28:57.979Z,6480.00
2019-02-16T11:29:57.998Z,6604.00
2019-02-16T11:30:58.020Z,6772.00
2019-02-16T11:31:58.038Z,6896.00
2019-02-16T11:32:58.084Z,7072.00
2019-02-16T11:33:58.094Z,7316.00
2019-02-16T11:34:58.129Z,7564.00
2019-02-16T11:35:58.168Z,7772.00
2019-02-16T11:36:58.164Z,7876.00
2019-02-16T11:37:58.174Z,8104.00
2019-02-16T11:38:58.202Z,8392.00
2019-02-16T11:39:58.237Z,8528.00
2019-02-16T11:40:58.244Z,8596.00
2019-02-16T11:41:58.402Z,8736.00
2019-02-16T11:42:58.303Z,8888.00
2019-02-16T11:43:58.322Z,8900.00
2019-02-16T11:44:58.344Z,8856.00
2019-02-16T11:45:58.374Z,8932.00
2019-02-16T11:46:58.393Z,9048.00
2019-02-16T11:47:58.430Z,9108.00
2019-02-16T11:48:58.443Z,9280.00
2019-02-16T11:49:58.480Z,9616.00
2019-02-16T11:50:58.509Z,10016.00
2019-02-16T11:51:58.592Z,9996.00
2019-02-16T11:52:58.557Z,9620.00
2019-02-16T11:53:58.588Z,9260.00
2019-02-16T11:54:58.621Z,8656.00
2019-02-16T11:56:58.685Z,7672.00
2019-02-16T11:57:58.690Z,8064.00
2019-02-16T11:58:58.769Z,8152.00
2019-02-16T11:59:58.750Z,7808.00
2019-02-16T12:00:58.784Z,6844.00
2019-02-16T12:01:58.830Z,5944.00
2019-02-16T12:02:58.859Z,5280.00
2019-02-16T12:03:58.871Z,4508.00
2019-02-16T12:04:58.881Z,4376.00
2019-02-16T12:05:58.911Z,4340.00
2019-02-16T12:07:58.959Z,3968.00
2019-02-16T12:08:59.006Z,3896.00
2019-02-16T12:09:59.022Z,3916.00
2019-02-16T12:10:59.083Z,3696.00
2019-02-16T12:11:59.074Z,3764.00
2019-02-16T12:12:59.095Z,3492.00
2019-02-16T12:13:59.144Z,3228.00
2019-02-16T12:14:59.163Z,3108.00
2019-02-16T12:16:00.000Z,3024.00
2019-02-16T12:16:59.192Z,2932.00
2019-02-16T12:17:59.229Z,2832.00
2019-02-16T12:18:59.251Z,2720.00
2019-02-16T12:19:59.298Z,2628.00
2019-02-16T12:20:59.357Z,2528.00
2019-02-16T12:21:59.345Z,2432.00
2019-02-16T12:22:59.347Z,2344.00
2019-02-16T12:23:59.371Z,2292.00
2019-02-16T12:25:05.739Z,2280.00
2019-02-16T12:25:59.415Z,2292.00
2019-02-16T12:26:59.439Z,2304.00
2019-02-16T12:27:59.462Z,2280.00
2019-02-16T12:28:59.494Z,2256.00
2019-02-16T12:29:59.509Z,2224.00
2019-02-16T12:30:59.535Z,2204.00
2019-02-16T12:31:59.562Z,2188.00
2019-02-16T12:32:59.578Z,2172.00
2019-02-16T12:33:59.596Z,2124.00
2019-02-16T12:34:59.626Z,2060.00
2019-02-16T12:35:59.644Z,2012.00
2019-02-16T12:36:59.668Z,1940.00
2019-02-16T12:37:59.816Z,1876.00
2019-02-16T12:39:04.911Z,1836.00
2019-02-16T12:39:59.741Z,1784.00
2019-02-16T12:40:59.756Z,1736.00
2019-02-16T12:41:59.785Z,1692.00
2019-02-16T12:42:59.821Z,1640.00
2019-02-16T12:43:59.831Z,1584.00
2019-02-16T12:44:59.868Z,1556.00
2019-02-16T12:45:59.870Z,1540.00
2019-02-16T12:46:59.894Z,1532.00
2019-02-16T12:47:59.956Z,1532.00
2019-02-16T12:48:59.942Z,1532.00
2019-02-16T12:49:59.962Z,1532.00
2019-02-16T12:50:59.990Z,1524.00
2019-02-16T12:52:00.007Z,1532.00
2019-02-16T12:53:00.026Z,1532.00
2019-02-16T12:54:00.054Z,1504.00
2019-02-16T12:55:00.312Z,1516.00
2019-02-16T12:56:00.089Z,1532.00
2019-02-16T12:57:00.130Z,1528.00
2019-02-16T12:58:00.172Z,1520.00
2019-02-16T12:59:00.161Z,1500.00
2019-02-16T13:00:00.320Z,1484.00
2019-02-16T13:01:00.202Z,1456.00
2019-02-16T13:02:00.225Z,1436.00
2019-02-16T13:03:00.250Z,1424.00
2019-02-16T13:04:00.274Z,1404.00
2019-02-16T13:05:00.308Z,1368.00
2019-02-16T13:06:00.315Z,1336.00
2019-02-16T13:07:00.335Z,1312.00
2019-02-16T13:08:00.390Z,1240.00
2019-02-16T13:10:00.406Z,1156.00
2019-02-16T13:11:00.428Z,1136.00
2019-02-16T13:12:00.456Z,1108.00
2019-02-16T13:13:00.481Z,1088.00
2019-02-16T13:14:00.499Z,1092.00
2019-02-16T13:15:00.514Z,1156.00
2019-02-16T13:16:00.535Z,1196.00
2019-02-16T13:17:00.553Z,1212.00
2019-02-16T13:18:00.594Z,1208.00
2019-02-16T13:19:00.595Z,1212.00
2019-02-16T13:20:00.622Z,1204.00
2019-02-16T13:21:00.643Z,1184.00
2019-02-16T13:22:00.663Z,1152.00
2019-02-16T13:23:00.688Z,1136.00